createdAt,value
2022-12-18T00:01:04.466Z,28.95
2022-12-18T00:03:31.163Z,28.41
2022-12-18T00:08:55.193Z,28.20
2022-12-18T00:22:37.952Z,28.49
2022-12-18T00:25:08.791Z,28.31
2022-12-18T00:27:44.059Z,28.20
2022-12-18T00:30:18.148Z,27.32
2022-12-18T00:32:52.707Z,27.66
2022-12-18T00:35:22.101Z,27.42
2022-12-18T00:37:49.266Z,26.77
2022-12-18T00:40:17.739Z,26.12
2022-12-18T00:42:45.422Z,26.88
2022-12-18T00:45:13.372Z,26.57
2022-12-18T00:50:17.726Z,27.60
2022-12-18T00:52:45.691Z,27.10
2022-12-18T00:55:13.350Z,26.31
2022-12-18T00:57:40.021Z,26.50
2022-12-18T01:00:07.406Z,27.22
2022-12-18T01:02:34.733Z,28.37
2022-12-18T01:05:01.809Z,28.72
2022-12-18T01:07:28.789Z,28.60
2022-12-18T01:09:58.251Z,27.93
2022-12-18T01:12:25.101Z,28.48
2022-12-18T01:14:51.965Z,28.53
2022-12-18T01:17:19.519Z,28.54
2022-12-18T01:19:46.141Z,28.00
2022-12-18T01:22:14.626Z,28.21
2022-12-18T01:24:41.495Z,28.66
2022-12-18T01:27:09.024Z,27.62
2022-12-18T01:29:38.106Z,27.50
2022-12-18T01:32:04.976Z,28.92
2022-12-18T01:34:31.597Z,28.48
2022-12-18T01:36:58.466Z,29.04
2022-12-18T01:39:25.148Z,29.44
2022-12-18T01:44:54.767Z,29.55
2022-12-18T01:47:22.269Z,29.52
2022-12-18T01:49:49.326Z,30.12
2022-12-18T01:52:16.197Z,29.90
2022-12-18T01:54:43.091Z,29.86
2022-12-18T01:57:13.223Z,29.46
2022-12-18T01:59:39.884Z,29.86
2022-12-18T02:02:08.112Z,29.75
2022-12-18T02:04:35.221Z,28.78
2022-12-18T02:07:33.930Z,28.49
2022-12-18T02:09:51.796Z,29.45
2022-12-18T02:12:21.401Z,29.39
2022-12-18T02:14:47.999Z,29.54
2022-12-18T02:17:15.725Z,29.08
2022-12-18T02:19:50.591Z,30.04
2022-12-18T02:22:19.421Z,30.02
2022-12-18T02:24:47.145Z,28.29
2022-12-18T02:27:14.258Z,28.65
2022-12-18T02:29:41.130Z,29.62
2022-12-18T02:32:07.857Z,29.91
2022-12-18T02:34:36.333Z,31.39
2022-12-18T02:37:02.884Z,30.10
2022-12-18T02:39:29.546Z,29.50
2022-12-18T02:41:56.598Z,29.78
2022-12-18T02:44:24.231Z,29.15
2022-12-18T02:46:51.174Z,29.01
2022-12-18T02:49:18.117Z,28.75
2022-12-18T02:51:48.197Z,29.11
2022-12-18T02:54:14.993Z,29.37
2022-12-18T02:56:42.298Z,28.86
2022-12-18T02:59:09.146Z,29.04
2022-12-18T03:01:37.278Z,29.73
2022-12-18T03:06:58.094Z,29.36
2022-12-18T03:09:26.079Z,29.14
2022-12-18T03:15:05.822Z,29.39
2022-12-18T03:17:33.184Z,27.25
2022-12-18T03:20:00.888Z,28.41
2022-12-18T03:25:43.900Z,28.87
2022-12-18T03:28:11.322Z,29.24
2022-12-18T03:30:38.061Z,29.89
2022-12-18T03:33:05.730Z,28.89
2022-12-18T03:35:40.040Z,30.19
2022-12-18T03:38:06.935Z,30.68
2022-12-18T03:40:33.559Z,30.72
2022-12-18T03:43:00.179Z,30.82
2022-12-18T03:45:27.077Z,30.88
2022-12-18T03:47:54.125Z,30.64
2022-12-18T03:50:22.362Z,31.77
2022-12-18T03:52:49.213Z,31.31
2022-12-18T03:55:16.799Z,31.35
2022-12-18T03:57:44.131Z,30.52
2022-12-18T04:00:13.952Z,31.61
2022-12-18T04:02:40.807Z,30.26
2022-12-18T04:05:07.684Z,30.75
2022-12-18T04:07:34.521Z,29.31
2022-12-18T04:10:03.351Z,30.74
2022-12-18T04:12:34.244Z,29.29
2022-12-18T04:15:13.158Z,29.58
2022-12-18T04:18:00.529Z,30.31
2022-12-18T04:20:27.132Z,30.31
2022-12-18T04:25:41.330Z,30.08
2022-12-18T04:28:08.231Z,30.86
2022-12-18T04:30:34.866Z,30.44
2022-12-18T04:33:02.663Z,30.27
2022-12-18T04:38:26.330Z,31.54
2022-12-18T04:40:53.909Z,30.44
2022-12-18T04:43:24.590Z,30.35
2022-12-18T04:45:51.154Z,29.80
2022-12-18T04:48:17.821Z,30.95
2022-12-18T04:50:47.764Z,30.03
2022-12-18T04:53:14.837Z,30.23
2022-12-18T04:55:41.707Z,30.26
2022-12-18T04:58:10.013Z,30.72
2022-12-18T05:00:36.575Z,31.01
2022-12-18T05:03:04.213Z,30.53
2022-12-18T05:05:32.595Z,30.33
2022-12-18T05:08:01.058Z,30.16
2022-12-18T05:10:36.211Z,29.91
2022-12-18T05:13:04.589Z,29.92
2022-12-18T05:15:31.678Z,30.85
2022-12-18T05:17:58.300Z,29.76
2022-12-18T05:20:26.079Z,30.11
2022-12-18T05:22:52.592Z,30.23
2022-12-18T05:25:19.514Z,30.19
2022-12-18T05:27:47.709Z,30.20
2022-12-18T05:30:14.365Z,30.10
2022-12-18T05:32:41.138Z,29.39
2022-12-18T05:35:07.739Z,29.74
2022-12-18T05:37:42.501Z,30.36
2022-12-18T05:40:09.898Z,31.15
2022-12-18T05:42:36.854Z,30.97
2022-12-18T05:45:03.705Z,31.51
2022-12-18T05:47:31.565Z,31.01
2022-12-18T05:50:00.243Z,31.29
2022-12-18T05:52:27.148Z,31.64
2022-12-18T05:54:54.895Z,31.13
2022-12-18T05:57:21.671Z,30.29
2022-12-18T05:59:51.481Z,31.44
2022-12-18T06:02:18.782Z,30.50
2022-12-18T06:04:45.877Z,31.31
2022-12-18T06:07:12.472Z,31.77
2022-12-18T06:09:39.163Z,31.53
2022-12-18T06:12:06.477Z,32.04
2022-12-18T06:14:33.020Z,32.03
2022-12-18T06:17:11.086Z,31.02
2022-12-18T06:19:38.167Z,30.83
2022-12-18T06:22:05.096Z,30.35
2022-12-18T06:24:31.804Z,30.53
2022-12-18T06:26:59.147Z,30.90
2022-12-18T06:29:25.893Z,30.94
2022-12-18T06:32:04.169Z,30.67
2022-12-18T06:40:43.870Z,30.36
2022-12-18T06:43:13.036Z,32.18
2022-12-18T06:46:14.030Z,30.31
2022-12-18T06:48:34.094Z,29.80
2022-12-18T06:57:29.338Z,29.77
2022-12-18T06:59:56.622Z,28.44
2022-12-18T07:02:32.705Z,26.83
2022-12-18T07:05:00.139Z,28.02
2022-12-18T07:07:28.699Z,27.38
2022-12-18T07:09:56.668Z,24.75
2022-12-18T07:12:31.547Z,25.94
2022-12-18T07:15:06.629Z,26.62
2022-12-18T07:17:46.869Z,25.14
2022-12-18T07:20:21.859Z,25.90
2022-12-18T07:34:12.907Z,24.36
2022-12-18T07:36:50.993Z,24.51
2022-12-18T07:39:22.367Z,24.48
2022-12-18T07:41:53.461Z,24.34
2022-12-18T07:47:44.665Z,23.82
2022-12-18T07:50:19.542Z,23.87
2022-12-18T07:52:47.490Z,25.38
2022-12-18T08:07:29.453Z,23.09
2022-12-18T08:10:13.684Z,23.02
2022-12-18T08:47:55.744Z,24.36
2022-12-18T08:50:58.402Z,24.91
2022-12-18T08:53:35.664Z,24.84
2022-12-18T08:56:16.336Z,24.64
2022-12-18T08:58:49.517Z,23.30
2022-12-18T09:01:20.465Z,23.70
2022-12-18T09:03:51.632Z,22.62
2022-12-18T09:06:22.881Z,23.16
2022-12-18T09:08:57.808Z,21.60
2022-12-18T09:11:29.601Z,21.90
2022-12-18T09:13:57.282Z,21.58
2022-12-18T09:19:08.095Z,21.89
2022-12-18T09:21:37.075Z,21.46
2022-12-18T09:24:09.242Z,22.64
2022-12-18T09:26:36.260Z,23.96
2022-12-18T09:29:03.253Z,24.94
2022-12-18T09:31:30.870Z,24.36
2022-12-18T09:36:40.155Z,23.63
2022-12-18T09:39:09.190Z,22.53
2022-12-18T09:41:36.680Z,23.14
2022-12-18T09:44:03.247Z,22.64
2022-12-18T09:46:32.857Z,22.61
2022-12-18T09:48:59.782Z,22.03
2022-12-18T09:51:28.489Z,22.48
2022-12-18T09:54:00.892Z,22.82
2022-12-18T09:59:26.263Z,22.21
2022-12-18T10:01:54.016Z,21.97
2022-12-18T10:04:22.757Z,21.88
2022-12-18T10:06:52.791Z,22.44
2022-12-18T10:12:08.767Z,23.26
2022-12-18T10:14:38.579Z,23.48
2022-12-18T10:17:07.203Z,22.99
2022-12-18T10:22:27.534Z,23.74
2022-12-18T10:24:58.206Z,23.80
2022-12-18T10:27:26.840Z,23.49
2022-12-18T10:29:55.844Z,23.77
2022-12-18T10:32:22.687Z,23.53
2022-12-18T10:34:49.520Z,23.08
2022-12-18T10:37:25.307Z,23.30
2022-12-18T10:42:45.053Z,23.56
2022-12-18T10:45:15.962Z,23.69
2022-12-18T10:51:10.799Z,24.35
2022-12-18T11:08:52.028Z,25.84
2022-12-18T11:11:22.879Z,25.33
2022-12-18T11:13:50.133Z,24.53
2022-12-18T11:16:18.955Z,25.95
2022-12-18T11:18:49.656Z,25.62
2022-12-18T11:21:17.225Z,25.35
2022-12-18T11:23:45.691Z,25.38
2022-12-18T11:26:16.945Z,24.47
2022-12-18T11:28:45.525Z,23.73
2022-12-18T11:31:21.404Z,24.00
2022-12-18T11:34:19.714Z,25.07
2022-12-18T11:36:45.415Z,24.81
2022-12-18T11:39:20.215Z,25.63
2022-12-18T11:41:54.810Z,24.16
2022-12-18T11:44:21.764Z,23.85
2022-12-18T11:46:53.356Z,25.49
2022-12-18T11:49:20.469Z,25.91
2022-12-18T11:51:49.261Z,25.04
2022-12-18T11:54:19.870Z,23.71
2022-12-18T12:02:33.958Z,24.03
2022-12-18T12:05:01.461Z,25.50
2022-12-18T12:07:30.567Z,24.59
2022-12-18T12:09:57.913Z,25.42
2022-12-18T12:12:27.065Z,24.25
2022-12-18T12:15:05.326Z,24.35
2022-12-18T12:17:34.936Z,23.68
2022-12-18T12:22:43.807Z,23.15
2022-12-18T12:25:13.325Z,24.09
2022-12-18T12:27:45.690Z,23.70
2022-12-18T12:30:23.448Z,22.61
2022-12-18T12:32:51.803Z,22.43
2022-12-18T12:35:18.850Z,23.83
2022-12-18T12:37:50.593Z,25.20
2022-12-18T12:43:01.211Z,22.87
2022-12-18T12:45:35.144Z,22.75
2022-12-18T12:48:03.863Z,22.86
2022-12-18T12:50:38.984Z,23.29
2022-12-18T12:53:06.235Z,22.59
2022-12-18T12:55:33.282Z,23.98
2022-12-18T12:58:00.851Z,22.57
2022-12-18T13:00:38.398Z,24.88
2022-12-18T13:03:05.575Z,24.06
2022-12-18T13:05:33.351Z,22.67
2022-12-18T13:08:03.267Z,22.89
2022-12-18T13:10:33.179Z,23.83
2022-12-18T13:13:00.181Z,22.72
2022-12-18T13:15:27.904Z,22.95
2022-12-18T13:18:02.065Z,23.84
2022-12-18T13:20:29.066Z,22.94
2022-12-18T13:22:56.011Z,23.86
2022-12-18T13:25:23.266Z,23.20
2022-12-18T13:27:50.728Z,22.76
2022-12-18T13:30:21.759Z,22.24
2022-12-18T13:32:48.388Z,22.90
2022-12-18T13:38:10.170Z,22.66
2022-12-18T13:40:38.342Z,23.48
2022-12-18T13:43:05.048Z,22.74
2022-12-18T13:45:33.313Z,22.83
2022-12-18T13:48:00.212Z,22.98
2022-12-18T13:50:36.051Z,24.12
2022-12-18T13:53:04.851Z,23.30
2022-12-18T13:55:39.100Z,23.92
2022-12-18T13:58:09.044Z,22.89
2022-12-18T14:00:36.411Z,23.87
2022-12-18T14:03:03.506Z,22.86
2022-12-18T14:05:31.016Z,23.50
2022-12-18T14:08:07.116Z,22.96
2022-12-18T14:10:48.953Z,24.12
2022-12-18T14:13:35.311Z,24.20
2022-12-18T14:16:06.708Z,24.66
2022-12-18T14:18:35.387Z,23.94
2022-12-18T14:21:03.906Z,24.18
2022-12-18T14:23:45.971Z,24.62
2022-12-18T14:29:34.186Z,24.98
2022-12-18T14:32:01.177Z,23.58
2022-12-18T14:40:42.600Z,23.40
2022-12-18T14:46:18.874Z,24.41
2022-12-18T14:48:48.226Z,23.89
2022-12-18T14:51:27.866Z,24.09
2022-12-18T14:57:06.100Z,24.16
2022-12-18T15:05:25.339Z,24.85
2022-12-18T15:07:53.929Z,25.63
2022-12-18T15:10:20.451Z,30.38
2022-12-18T15:12:49.159Z,28.25
2022-12-18T15:15:16.667Z,26.87
2022-12-18T15:17:44.354Z,27.21
2022-12-18T15:20:11.019Z,30.80
2022-12-18T15:22:38.642Z,27.41
2022-12-18T15:31:20.551Z,25.62
2022-12-18T15:34:31.071Z,25.86
2022-12-18T15:37:03.739Z,25.76
2022-12-18T15:45:20.042Z,26.57
2022-12-18T15:48:02.753Z,26.80
2022-12-18T15:50:35.312Z,27.40
2022-12-18T15:55:46.668Z,29.41
2022-12-18T15:58:19.511Z,29.09
2022-12-18T16:00:52.612Z,29.58
2022-12-18T16:03:19.553Z,29.52
2022-12-18T16:05:49.341Z,28.69
2022-12-18T16:08:18.378Z,28.53
2022-12-18T16:10:46.279Z,28.90
2022-12-18T16:13:13.901Z,30.12
2022-12-18T16:15:41.225Z,29.96
2022-12-18T16:18:08.103Z,28.99
2022-12-18T16:20:34.783Z,30.20
2022-12-18T16:23:06.294Z,31.44
2022-12-18T16:25:33.133Z,29.26
2022-12-18T16:28:01.509Z,29.84
2022-12-18T16:30:32.328Z,28.03
2022-12-18T16:33:05.928Z,28.15
2022-12-18T16:35:35.545Z,28.87
2022-12-18T16:38:02.644Z,28.28
2022-12-18T16:40:34.265Z,28.30
2022-12-18T16:43:02.648Z,28.80
2022-12-18T16:45:29.710Z,29.18
2022-12-18T16:47:58.243Z,28.79
2022-12-18T16:50:29.286Z,29.27
2022-12-18T16:52:56.028Z,29.94
2022-12-18T16:55:23.389Z,28.34
2022-12-18T16:57:50.773Z,28.59
2022-12-18T17:00:20.354Z,28.04
2022-12-18T17:02:47.993Z,27.81
2022-12-18T17:05:14.806Z,27.62
2022-12-18T17:07:45.620Z,27.52
2022-12-18T17:10:13.328Z,28.06
2022-12-18T17:12:41.973Z,29.06
2022-12-18T17:15:15.313Z,29.06
2022-12-18T17:17:43.434Z,28.26
2022-12-18T17:20:10.274Z,28.36
2022-12-18T17:22:39.793Z,28.19
2022-12-18T17:25:06.502Z,28.62
2022-12-18T17:27:33.103Z,27.82
2022-12-18T17:33:06.288Z,31.28
2022-12-18T17:38:37.564Z,31.53
2022-12-18T17:41:05.648Z,33.66
2022-12-18T17:46:42.428Z,32.81
2022-12-18T17:49:09.003Z,32.61
2022-12-18T17:51:39.007Z,29.57
2022-12-18T17:54:05.628Z,30.04
2022-12-18T17:56:33.027Z,29.55
2022-12-18T17:58:59.740Z,29.34
2022-12-18T18:01:28.160Z,29.29
2022-12-18T18:03:58.115Z,31.11
2022-12-18T18:06:27.214Z,31.21
2022-12-18T18:54:26.974Z,30.16
2022-12-18T18:57:19.363Z,29.21
2022-12-18T19:10:57.533Z,30.19
2022-12-18T19:19:03.932Z,31.88
2022-12-18T21:26:02.031Z,30.37
2022-12-18T21:28:28.792Z,31.29
2022-12-18T21:43:05.769Z,31.35
2022-12-18T21:45:40.617Z,32.57
2022-12-18T21:48:09.261Z,31.50
2022-12-18T21:50:36.308Z,31.60
2022-12-18T21:53:03.291Z,31.52
2022-12-18T21:55:34.193Z,31.59
2022-12-18T21:58:01.704Z,31.70
2022-12-18T22:00:28.800Z,31.12
2022-12-18T22:03:17.219Z,31.95
2022-12-18T22:05:46.474Z,30.80
2022-12-18T22:08:16.777Z,31.05
2022-12-18T22:10:46.064Z,31.57
2022-12-18T22:13:13.226Z,31.78
2022-12-18T22:15:40.315Z,31.23
2022-12-18T22:18:07.306Z,30.59
2022-12-18T22:20:34.525Z,31.24
2022-12-18T22:23:05.904Z,30.87
2022-12-18T22:25:35.836Z,30.88
2022-12-18T22:28:06.621Z,30.70
2022-12-18T22:30:34.170Z,31.24
2022-12-18T22:33:01.633Z,30.03
2022-12-18T22:35:30.635Z,30.15
2022-12-18T22:37:57.429Z,31.32
2022-12-18T22:40:28.379Z,31.13
2022-12-18T22:42:55.132Z,31.70
2022-12-18T22:45:29.524Z,30.57
2022-12-18T22:47:58.833Z,30.26
2022-12-18T22:50:25.734Z,30.73
2022-12-18T22:52:52.725Z,31.44
2022-12-18T22:55:24.195Z,32.03
2022-12-18T22:58:00.921Z,31.14
2022-12-18T23:00:28.054Z,31.88
2022-12-18T23:03:00.386Z,31.71
2022-12-18T23:05:29.994Z,32.38
2022-12-18T23:08:00.915Z,32.09
2022-12-18T23:10:31.655Z,31.82
2022-12-18T23:13:02.792Z,32.30
2022-12-18T23:15:32.036Z,32.15
2022-12-18T23:17:59.619Z,31.28
2022-12-18T23:20:31.725Z,31.03
2022-12-18T23:23:00.297Z,30.72
2022-12-18T23:25:26.947Z,30.58
2022-12-18T23:27:54.097Z,31.68
2022-12-18T23:30:26.154Z,31.79
2022-12-18T23:32:53.403Z,31.67
2022-12-18T23:35:21.121Z,31.21
2022-12-18T23:37:59.314Z,31.41
2022-12-18T23:40:29.655Z,31.16
2022-12-18T23:42:57.291Z,31.09
2022-12-18T23:45:23.898Z,30.23
2022-12-18T23:47:51.460Z,30.57
2022-12-18T23:50:18.165Z,30.58
2022-12-18T23:52:45.269Z,30.12
2022-12-18T23:55:12.104Z,31.42
2022-12-18T23:57:39.458Z,31.23
